Flight Track Log - Related Links

Times and Time Zones

All times are in EDT time to prevent confusion due to time zone crossing. See the JBU729 flight status page for this flight to view local times or setup timezone preferences in your user account.


Time Position Orientation Groundspeed Altitude Reporting Facility
EDT Latitude Longitude Course Direction KTS MPH feet Rate Location/Type
Fri 11:44:00 PM 28.2073 -80.9410 148° Southeast  Level Estimated
Fri 11:45:00 PM 28.1330 -80.8187 146° Southeast  Level Estimated
Fri 11:46:00 PM 28.0587 -80.6966 149° Southeast  Level Estimated
Fri 11:46:26 PM 28.1900 -81.0600 148° Southeast 348 400 11,900  Level FlightAware ADS-B
Fri 11:47:00 PM 27.9842 -80.5746 148° Southeast  Level Estimated
Fri 11:47:11 PM 28.1460 -80.9870 124° Southeast 363 418 14,000  Level FlightAware ADS-B
Fri 11:47:51 PM 28.1080 -80.9240 124° Southeast 363 418 15,900 2,700 Climbing FlightAware ADS-B
Fri 11:48:31 PM 28.0730 -80.8640 123° Southeast 366 421 17,600 2,329 Climbing FlightAware ADS-B
Fri 11:49:16 PM 28.0280 -80.7890 124° Southeast 383 441 19,200 1,553 Climbing FlightAware ADS-B
Fri 11:49:56 PM 27.9910 -80.7260 124° Southeast 384 442 19,800 450 Climbing FlightAware ADS-B
Fri 11:50:36 PM 27.9580 -80.6680 123° Southeast 384 442 19,800  Level FlightAware ADS-B
Fri 11:51:16 PM 27.9250 -80.6110 123° Southeast 384 442 19,800  Level FlightAware ADS-B
Fri 11:51:56 PM 27.8920 -80.5540 123° Southeast 384 442 19,800  Level FlightAware ADS-B
Fri 11:52:36 PM 27.8590 -80.4960 123° Southeast 384 442 19,800  Level FlightAware ADS-B
Fri 11:53:26 PM 27.8180 -80.4250 123° Southeast 384 442 19,800 3,223 Level FlightAware ADS-B
Fri 11:55:31 PM 27.6160 -80.1090 126° Southeast 461 531 29,200 3,318 Climbing FlightAware ADS-B
Fri 11:56:16 PM 27.5680 -80.0290 124° Southeast 461 531 29,200  Level FlightAware ADS-B
Fri 11:56:56 PM 27.5280 -79.9620 124° Southeast 461 531 29,200 1,800 Level FlightAware ADS-B
Fri 11:57:36 PM 27.4350 -79.8620 136° Southeast 474 545 31,600 2,471 Climbing FlightAware ADS-B
Fri 11:58:21 PM 27.3650 -79.7830 135° Southeast 473 544 32,700 1,412 Climbing FlightAware ADS-B
Fri 11:59:01 PM 27.3080 -79.7180 135° Southeast 469 540 33,600 1,425 Climbing FlightAware ADS-B
Fri 11:59:41 PM 27.2450 -79.6450 134° Southeast 465 535 34,600 1,482 Climbing FlightAware ADS-B
Sat 12:00:26 AM 27.1870 -79.5540 126° Southeast 468 539 35,700 1,140 Climbing FlightAware ADS-B
Sat 12:01:21 AM 27.1200 -79.4450 125° Southeast 471 542 36,500 600 Climbing FlightAware ADS-B
Sat 12:02:16 AM 27.0580 -79.3420 124° Southeast 471 542 36,800 900 Climbing FlightAware ADS-B
Sat 12:03:01 AM 26.9960 -79.2430 125° Southeast 469 540 38,000 1,129 Climbing FlightAware ADS-B
Sat 12:03:41 AM 26.9460 -79.1630 125° Southeast 473 544 38,400 525 Climbing FlightAware ADS-B
Sat 12:04:21 AM 26.9020 -79.0910 124° Southeast 477 549 38,700 424 Climbing FlightAware ADS-B
Sat 12:05:06 AM 26.8490 -79.0050 125° Southeast 479 551 39,000 212 Climbing FlightAware ADS-B
Sat 12:05:46 AM 26.7970 -78.9210 125° Southeast 475 547 39,000  Level FlightAware ADS-B
Sat 12:06:31 AM 26.7390 -78.8290 125° Southeast 480 552 39,000  Level FlightAware ADS-B
Sat 12:07:11 AM 26.6890 -78.7480 125° Southeast 480 552 39,000  Level FlightAware ADS-B
Sat 12:07:51 AM 26.6360 -78.6630 125° Southeast 482 555 39,000  Level FlightAware ADS-B
Sat 12:08:31 AM 26.5800 -78.5740 125° Southeast 484 557 39,000  Level FlightAware ADS-B
Sat 12:09:31 AM 26.5110 -78.4610 124° Southeast 484 557 39,000  Level FlightAware ADS-B
Sat 12:10:11 AM 26.4620 -78.3860 126° Southeast 484 557 39,000  Level FlightAware ADS-B
Sat 12:10:56 AM 26.3970 -78.2830 125° Southeast 481 554 39,000  Level FlightAware ADS-B
Sat 12:11:41 AM 26.3360 -78.1870 125° Southeast 481 554 39,000  Level FlightAware ADS-B
Sat 12:12:21 AM 26.2840 -78.1050 125° Southeast 481 554 39,000  Level FlightAware ADS-B
Sat 12:13:06 AM 26.2280 -78.0150 125° Southeast 481 554 39,000  Level FlightAware ADS-B
Sat 12:13:46 AM 26.1790 -77.9390 126° Southeast 482 555 39,000  Level FlightAware ADS-B
Sat 12:14:21 AM 26.1350 -77.8690 125° Southeast 482 555 39,000  Level FlightAware ADS-B
Sat 12:15:16 AM 26.0710 -77.7690 125° Southeast 479 551 39,000  Level FlightAware ADS-B
Sat 12:16:01 AM 26.0080 -77.6670 124° Southeast 481 554 39,000  Level FlightAware ADS-B
Sat 12:16:41 AM 25.9650 -77.5970 124° Southeast 481 554 39,000  Level FlightAware ADS-B
Sat 12:17:31 AM 25.9120 -77.5100 124° Southeast 481 554 39,000  Level FlightAware ADS-B
Sat 12:18:01 AM 25.8810 -77.4580 124° Southeast 481 554 39,000  Level FlightAware ADS-B
Sat 12:18:51 AM 25.8280 -77.3710 124° Southeast 481 554 39,000  Level FlightAware ADS-B
Sat 12:19:31 AM 25.7860 -77.3010 124° Southeast 481 554 39,000  Level FlightAware ADS-B
Sat 12:20:11 AM 25.7430 -77.2310 124° Southeast 481 554 39,000  Level FlightAware ADS-B
Sat 12:21:01 AM 25.6900 -77.1440 124° Southeast 481 554 39,000  Level FlightAware ADS-B
Sat 12:21:41 AM 25.6480 -77.0750 124° Southeast 481 554 39,000  Level FlightAware ADS-B
Sat 12:22:21 AM 25.6060 -77.0050 124° Southeast 481 554 39,000  Level FlightAware ADS-B
Sat 12:23:01 AM 25.5630 -76.9360 125° Southeast 481 554 39,000  Level FlightAware ADS-B
Sat 12:23:41 AM 25.5210 -76.8660 124° Southeast 481 554 39,000  Level FlightAware ADS-B
Sat 12:24:21 AM 25.4790 -76.7970 124° Southeast 481 554 39,000  Level FlightAware ADS-B
Sat 12:25:11 AM 25.4260 -76.7100 124° Southeast 481 554 39,000  Level FlightAware ADS-B
Sat 12:26:19 AM 25.1872 -76.4017 124° Southeast 491 565 39,000  Level Miami Center
Sat 12:27:20 AM 25.1072 -76.2806 126° Southeast 491 565 39,000  Level Miami Center
Sat 12:28:19 AM 25.0272 -76.1617 127° Southeast 491 565 39,000  Level Miami Center
Sat 12:29:22 AM 24.9514 -76.0406 125° Southeast 491 565 39,000  Level Miami Center
Sat 12:30:21 AM 24.8692 -75.9197 127° Southeast 491 565 39,000  Level Miami Center
Sat 12:31:22 AM 24.7869 -75.8011 127° Southeast 486 559 39,000  Level Miami Center
Sat 12:32:21 AM 24.7067 -75.6783 126° Southeast 486 559 39,000  Level Miami Center
Sat 12:33:22 AM 24.6283 -75.5581 126° Southeast 486 559 39,000  Level Miami Center
Sat 12:34:19 AM 24.5456 -75.4333 126° Southeast 491 565 39,000  Level Miami Center
Sat 12:35:20 AM 24.4628 -75.3131 127° Southeast 497 572 39,000  Level Miami Center
Sat 12:36:19 AM 24.3842 -75.1956 126° Southeast 497 572 39,000  Level Miami Center
Sat 12:37:19 AM 24.3033 -75.0736 126° Southeast 497 572 39,000  Level Miami Center
Sat 12:38:22 AM 24.2206 -74.9517 127° Southeast 497 572 39,000  Level Miami Center
Sat 12:39:19 AM 24.1394 -74.8344 127° Southeast 497 572 39,000  Level Miami Center
Sat 12:40:20 AM 24.0583 -74.7131 126° Southeast 497 572 39,000  Level Miami Center
Sat 12:41:19 AM 23.9772 -74.5939 127° Southeast 497 572 39,000  Level Miami Center
Sat 12:42:20 AM 23.8917 -74.4750 128° Southeast 497 572 39,000  Level Miami Center
Sat 12:43:22 AM 23.8125 -74.3561 126° Southeast 497 572 39,000  Level Miami Center
Sat 12:44:21 AM 23.7308 -74.2328 126° Southeast 497 572 39,000  Level Miami Center
Sat 12:45:22 AM 23.6475 -74.1167 128° Southeast 497 572 39,000  Level Miami Center
Sat 12:46:21 AM 23.5617 -73.9961 128° Southeast 497 572 39,000  Level Miami Center
Sat 12:47:19 AM 23.4756 -73.8736 127° Southeast 497 572 39,000  Level Miami Center
Sat 12:48:21 AM 23.3981 -73.7553 125° Southeast 503 579 39,000  Level Miami Center
Sat 12:49:19 AM 23.3206 -73.6486 128° Southeast 496 571 39,000  Level Miami Center
Sat 12:50:20 AM 23.2386 -73.5286 127° Southeast 496 571 39,000  Level Miami Center
Sat 12:51:21 AM 23.1586 -73.4089 126° Southeast 496 571 39,000  Level Miami Center
Sat 12:52:19 AM 23.0658 -73.2872 130° Southeast 501 577 39,000  Level Miami Center
Sat 12:53:22 AM 22.9878 -73.1675 125° Southeast 501 577 39,000  Level Miami Center
Sat 12:54:21 AM 22.8969 -73.0417 128° Southeast 484 557 39,000  Level Miami Center
Sat 12:55:21 AM 22.8164 -72.9178 125° Southeast 490 564 39,000  Level Miami Center
Sat 12:56:19 AM 22.7319 -72.8033 129° Southeast 496 571 39,000  Level Miami Center
Sat 12:57:19 AM 22.6453 -72.6825 128° Southeast 501 577 39,000  Level Miami Center
Sat 12:58:19 AM 22.5625 -72.5636 127° Southeast 501 577 39,000  Level Miami Center
Sat 12:59:19 AM 22.4778 -72.4428 127° Southeast 501 577 39,000  Level Miami Center
Sat 01:00:21 AM 22.3908 -72.3269 129° Southeast 501 577 39,000  Level Miami Center
Sat 01:01:21 AM 22.3186 -72.2194 126° Southeast 495 570 39,000  Level Miami Center
Sat 01:02:19 AM 22.2336 -72.1014 128° Southeast 495 570 39,000  Level Miami Center
Sat 01:03:21 AM 22.1483 -71.9836 128° Southeast 495 570 39,000  Level Miami Center
Sat 01:04:19 AM 22.0653 -71.8656 127° Southeast 500 575 39,000  Level Miami Center
Sat 01:05:21 AM 21.9800 -71.7481 128° Southeast 500 575 39,000  Level Miami Center
Sat 01:06:21 AM 21.8944 -71.6283 128° Southeast 500 575 39,000  Level Miami Center
Sat 01:07:19 AM 21.8092 -71.5111 128° Southeast 500 575 39,000  Level Miami Center
Sat 01:08:19 AM 21.7236 -71.3961 129° Southeast 495 570 39,000  Level Miami Center
Sat 01:09:21 AM 21.6400 -71.2769 127° Southeast 495 570 39,000  Level Miami Center
Sat 01:10:19 AM 21.5564 -71.1578 127° Southeast 500 575 39,000  Level Miami Center
Sat 01:11:21 AM 21.4725 -71.0322 126° Southeast 506 582 39,000  Level Miami Center
Sat 01:12:21 AM 21.3675 -70.9031 131° Southeast 516 594 39,000  Level Miami Center
Sat 01:13:22 AM 21.2817 -70.7889 129° Southeast 510 587 39,000  Level Miami Center
Sat 01:14:22 AM 21.1956 -70.6728 128° Southeast 505 581 39,000  Level Miami Center
Sat 01:15:19 AM 21.1097 -70.5611 129° Southeast 505 581 39,000  Level Miami Center
Sat 01:16:19 AM 21.0236 -70.4431 128° Southeast 498 573 39,000  Level Miami Center
Sat 01:17:19 AM 20.9397 -70.3272 128° Southeast 498 573 39,000  Level Miami Center
Sat 01:18:20 AM 20.8514 -70.2117 129° Southeast 498 573 39,000  Level Miami Center
Sat 01:19:20 AM 20.7628 -70.0942 129° Southeast 498 573 39,000  Level Miami Center
Sat 01:20:20 AM 20.6786 -69.9767 127° Southeast 498 573 39,000  Level Miami Center
Sat 01:21:22 AM 20.5900 -69.8594 129° Southeast 503 579 39,000  Level Miami Center
Sat 01:22:21 AM 20.5014 -69.7444 129° Southeast 503 579 39,000  Level Miami Center
Sat 01:23:20 AM 20.4128 -69.6275 129° Southeast 503 579 39,000  Level Miami Center
Sat 01:24:20 AM 20.3261 -69.5131 129° Southeast 503 579 39,000  Level Miami Center
Sat 01:25:19 AM 20.2372 -69.3964 129° Southeast 503 579 39,000  Level Miami Center
Sat 01:26:21 AM 20.1483 -69.2819 130° Southeast 503 579 39,000  Level Miami Center
Sat 01:27:19 AM 20.0614 -69.1633 128° Southeast 503 579 39,000  Level Miami Center
Sat 01:28:20 AM 19.9744 -69.0472 129° Southeast 503 579 39,000  Level Miami Center
Sat 01:29:21 AM 19.8833 -68.9314 130° Southeast 503 579 39,000 -50 Level Miami Center
Sat 01:30:21 AM 19.7964 -68.8153 129° Southeast 503 579 38,900 -1,050 Descending Miami Center
Sat 01:31:21 AM 19.7072 -68.7019 130° Southeast 503 579 36,900 -2,390 Descending Miami Center
Sat 01:32:19 AM 19.6219 -68.5817 127° Southeast 503 579 34,200 -2,655 Descending Miami Center
Sat 01:33:14 AM 19.5333 -68.4667 129° Southeast 520 598 31,900 -2,638 Descending San Juan Center
Sat 01:34:15 AM 19.4500 -68.3500 127° Southeast 510 587 29,100 -2,678 Descending San Juan Center
Sat 01:35:15 AM 19.3667 -68.2333 127° Southeast 490 564 26,500 -2,550 Descending San Juan Center
Sat 01:36:15 AM 19.2833 -68.1333 131° Southeast 480 552 24,000 -2,281 Descending San Juan Center
Sat 01:37:16 AM 19.2000 -68.0333 131° Southeast 450 518 21,900 -2,678 Descending San Juan Center
Sat 01:38:16 AM 19.1000 -67.9500 142° Southeast 450 518 18,600 -2,950 Descending San Juan Center
Sat 01:39:16 AM 19.0000 -67.8500 137° Southeast 440 506 16,000 -2,876 Descending San Juan Center
Sat 01:40:17 AM 18.9167 -67.7667 137° Southeast 430 495 12,800 -2,678 Descending San Juan Center
Sat 01:41:17 AM 18.8333 -67.7000 143° Southeast 400 460 10,600 -1,300 Descending San Juan Center
Sat 01:42:17 AM 18.7667 -67.6167 130° Southeast 340 391 10,200 -744 Descending San Juan Center
Sat 01:43:18 AM 18.7000 -67.5667 145° Southeast 290 334 9,100 -1,240 Descending San Juan Center
Sat 01:44:18 AM 18.6500 -67.5167 137° Southeast 270 311 7,700 -1,400 Descending San Juan Center
Sat 01:45:18 AM 18.5833 -67.4667 145° Southeast 260 299 6,300 -1,127 Descending San Juan Center
Sat 01:47:19 AM 18.5000 -67.3667 131° Southeast 220 253 4,300 -895 Descending San Juan Center
Sat 01:48:19 AM 18.4500 -67.3333 148° Southeast 170 196 3,600 -650 Descending San Juan Center
Sat 01:49:19 AM 18.4333 -67.3000 118° Southeast 160 184 3,000 -545 Descending San Juan Center
Sat 01:50:20 AM 18.4333 -67.2500 90° East 160 184 2,500 -595 Descending San Juan Center
Sat 01:51:20 AM 18.4500 -67.2167 62° Northeast 120 138 1,800 -700 Descending San Juan Center
Sat 01:52:20 AM 18.4667 -67.1833 62° Northeast 120 138 1,100 -700 Descending San Juan Center

Login

Don't have an account? Register now (free) for customized features, flight alerts, and more!